Time;durP1;ratioP1;P1;durP2;ratioP2;P2;SDS_P1;SDS_P2;PMS_P1;PMS_P2;Temp;Humidity;BMP_temperature;BMP_pressure;BME280_temperature;BME280_humidity;BME280_pressure;Samples;Min_cycle;Max_cycle;Signal;HPM_P1;HPM_P2
2023/01/22 00:01:52;;;;;;;47.93;28.77;;;;;;;;;;4417472;32;319424;-85
2023/01/22 00:04:19;;;;;;;45.20;25.63;;;;;;;;;;4406130;32;319249;-85
2023/01/22 00:06:46;;;;;;;46.23;26.27;;;;;;;;;;4417573;32;319169;-84
2023/01/22 00:09:14;;;;;;;37.73;22.87;;;;;;;;;;4407196;32;318466;-82
2023/01/22 00:11:42;;;;;;;36.57;24.20;;;;;;;;;;4417501;32;319105;-83
2023/01/22 00:14:09;;;;;;;40.30;24.43;;;;;;;;;;4417444;32;318435;-84
2023/01/22 00:16:36;;;;;;;37.10;24.40;;;;;;;;;;4407496;32;318843;-83
2023/01/22 00:19:03;;;;;;;36.13;21.33;;;;;;;;;;4417337;32;319206;-84
2023/01/22 00:21:29;;;;;;;35.00;20.13;;;;;;;;;;4406049;32;317626;-84
2023/01/22 00:23:56;;;;;;;35.07;21.73;;;;;;;;;;4415723;32;335026;-83
2023/01/22 00:26:23;;;;;;;32.10;21.50;;;;;;;;;;4407242;32;318679;-84
2023/01/22 00:28:51;;;;;;;33.87;20.77;;;;;;;;;;4417338;32;319465;-84
2023/01/22 00:31:18;;;;;;;43.27;22.57;;;;;;;;;;4407057;32;319374;-83
2023/01/22 00:33:46;;;;;;;37.77;21.80;;;;;;;;;;4417355;32;318561;-83
2023/01/22 00:36:16;;;;;;;35.47;20.97;;;;;;;;;;4404307;32;335195;-83
2023/01/22 00:38:43;;;;;;;34.30;22.13;;;;;;;;;;4415956;32;317510;-84
2023/01/22 00:41:10;;;;;;;39.07;21.90;;;;;;;;;;4409100;32;318918;-84
2023/01/22 00:43:39;;;;;;;35.30;22.93;;;;;;;;;;4403822;32;417436;-84
2023/01/22 00:46:08;;;;;;;30.80;20.23;;;;;;;;;;4417220;32;319484;-84
2023/01/22 00:48:35;;;;;;;25.77;14.60;;;;;;;;;;4405943;32;319340;-83
2023/01/22 00:51:02;;;;;;;15.93;10.63;;;;;;;;;;4416546;32;319456;-84
2023/01/22 00:53:28;;;;;;;18.53;12.23;;;;;;;;;;4405950;32;318530;-83
2023/01/22 00:55:57;;;;;;;23.80;15.70;;;;;;;;;;4415711;32;319421;-83
2023/01/22 00:58:25;;;;;;;25.33;15.67;;;;;;;;;;4407131;32;319516;-84
2023/01/22 01:00:52;;;;;;;34.80;21.30;;;;;;;;;;4415848;32;318733;-83
2023/01/22 01:03:26;;;;;;;40.30;22.60;;;;;;;;;;4407352;32;318638;-82
2023/01/22 01:05:54;;;;;;;35.87;21.60;;;;;;;;;;4418578;32;319570;-83
2023/01/22 01:08:20;;;;;;;30.53;19.03;;;;;;;;;;4408583;32;317569;-83
2023/01/22 01:10:47;;;;;;;35.53;23.10;;;;;;;;;;4419495;32;326570;-82
2023/01/22 01:13:14;;;;;;;35.30;23.17;;;;;;;;;;4409615;32;318234;-83
2023/01/22 01:15:42;;;;;;;34.17;23.77;;;;;;;;;;4419736;32;318102;-83
2023/01/22 01:18:11;;;;;;;32.77;20.70;;;;;;;;;;4418398;32;317489;-83
2023/01/22 01:20:42;;;;;;;38.63;23.47;;;;;;;;;;4406238;32;419209;-83
2023/01/22 01:23:09;;;;;;;32.13;21.80;;;;;;;;;;4419598;32;318416;-82
2023/01/22 01:25:40;;;;;;;39.47;24.57;;;;;;;;;;4409678;32;319075;-83
2023/01/22 01:28:07;;;;;;;41.40;27.53;;;;;;;;;;4419437;32;317519;-82
2023/01/22 01:30:33;;;;;;;45.17;26.53;;;;;;;;;;4408403;32;318469;-85
2023/01/22 01:33:00;;;;;;;42.67;28.33;;;;;;;;;;4419566;32;317719;-82
2023/01/22 01:35:27;;;;;;;40.87;27.77;;;;;;;;;;4409590;32;317628;-85
2023/01/22 01:37:55;;;;;;;48.70;26.50;;;;;;;;;;4418300;32;317608;-82
2023/01/22 01:40:22;;;;;;;36.70;25.27;;;;;;;;;;4409335;32;318308;-83
2023/01/22 01:42:48;;;;;;;43.27;28.27;;;;;;;;;;4418213;32;318312;-83
2023/01/22 01:45:25;;;;;;;44.40;28.13;;;;;;;;;;4406423;32;331830;-83
2023/01/22 01:47:56;;;;;;;45.40;27.67;;;;;;;;;;4419324;32;317658;-83
2023/01/22 01:50:24;;;;;;;36.30;24.53;;;;;;;;;;4408321;32;318410;-83
2023/01/22 01:52:51;;;;;;;41.10;27.67;;;;;;;;;;4419144;32;318363;-84
2023/01/22 01:55:27;;;;;;;50.10;28.07;;;;;;;;;;4408969;32;318255;-83
2023/01/22 01:57:58;;;;;;;38.33;26.33;;;;;;;;;;4419355;32;318582;-83
2023/01/22 02:00:27;;;;;;;46.10;26.50;;;;;;;;;;4409188;32;318128;-83
2023/01/22 02:02:54;;;;;;;50.10;28.83;;;;;;;;;;4418066;32;317604;-83
2023/01/22 02:05:22;;;;;;;69.87;41.30;;;;;;;;;;4407930;32;318670;-83
2023/01/22 02:07:49;;;;;;;61.80;37.57;;;;;;;;;;4417895;32;318109;-82
2023/01/22 02:10:16;;;;;;;49.70;30.23;;;;;;;;;;4406619;32;318171;-83
2023/01/22 02:12:44;;;;;;;44.47;25.77;;;;;;;;;;4417778;32;318067;-82
2023/01/22 02:15:11;;;;;;;55.50;25.33;;;;;;;;;;4417864;32;318596;-82
2023/01/22 02:17:38;;;;;;;33.27;20.13;;;;;;;;;;4404789;32;415808;-82
2023/01/22 02:20:05;;;;;;;31.73;18.00;;;;;;;;;;4404000;32;318282;-84
2023/01/22 02:22:38;;;;;;;35.60;19.13;;;;;;;;;;4408632;32;318408;-83
2023/01/22 02:25:06;;;;;;;27.97;18.47;;;;;;;;;;4418915;32;318399;-85
2023/01/22 02:27:33;;;;;;;28.00;16.97;;;;;;;;;;4408754;32;317423;-84
2023/01/22 02:30:00;;;;;;;29.00;17.03;;;;;;;;;;4418603;32;317396;-84
2023/01/22 02:32:28;;;;;;;17.03;11.10;;;;;;;;;;4408438;32;318274;-84
2023/01/22 02:34:55;;;;;;;16.80;9.17;;;;;;;;;;4418881;32;317672;-83
2023/01/22 02:37:22;;;;;;;17.97;8.73;;;;;;;;;;4408417;32;316336;-82
2023/01/22 02:39:50;;;;;;;13.53;6.90;;;;;;;;;;4418764;32;317378;-83
2023/01/22 02:42:17;;;;;;;14.40;8.47;;;;;;;;;;4408539;32;316463;-83
2023/01/22 02:44:44;;;;;;;17.37;10.60;;;;;;;;;;4418625;32;317272;-84
2023/01/22 02:47:11;;;;;;;19.83;11.47;;;;;;;;;;4417315;32;318377;-83
2023/01/22 02:49:37;;;;;;;24.57;14.53;;;;;;;;;;4404597;32;417198;-84
2023/01/22 02:52:05;;;;;;;27.43;15.40;;;;;;;;;;4418355;32;318246;-83
2023/01/22 02:54:32;;;;;;;26.40;14.87;;;;;;;;;;4408292;32;317933;-83
2023/01/22 02:57:00;;;;;;;22.27;14.20;;;;;;;;;;4418109;32;317439;-84
2023/01/22 02:59:27;;;;;;;21.33;12.87;;;;;;;;;;4408224;32;317557;-83
2023/01/22 03:01:55;;;;;;;30.00;15.33;;;;;;;;;;4418248;32;317550;-83
2023/01/22 03:04:23;;;;;;;28.10;15.93;;;;;;;;;;4408033;32;318424;-83
2023/01/22 03:06:50;;;;;;;28.00;15.80;;;;;;;;;;4418258;32;318571;-83
2023/01/22 03:09:17;;;;;;;30.80;19.10;;;;;;;;;;4406840;32;318340;-83
2023/01/22 03:11:45;;;;;;;29.77;18.33;;;;;;;;;;4418105;32;318699;-84
2023/01/22 03:22:32;;;;;;;22.70;15.70;;;;;;;;;;4407989;32;317479;-83
2023/01/22 03:25:00;;;;;;;28.43;14.60;;;;;;;;;;4416428;32;317763;-83
2023/01/22 03:27:28;;;;;;;20.97;13.93;;;;;;;;;;4406366;32;318247;-84
2023/01/22 03:29:56;;;;;;;26.00;13.40;;;;;;;;;;4417898;32;318929;-83
2023/01/22 03:32:24;;;;;;;26.47;13.63;;;;;;;;;;4407689;32;317638;-83
2023/01/22 03:34:52;;;;;;;25.03;13.47;;;;;;;;;;4416754;32;317489;-83
2023/01/22 03:37:19;;;;;;;23.87;13.53;;;;;;;;;;4407327;32;318507;-83
2023/01/22 03:39:45;;;;;;;22.97;13.63;;;;;;;;;;4416842;32;318285;-83
2023/01/22 03:42:15;;;;;;;24.00;13.73;;;;;;;;;;4406825;32;344882;-85
2023/01/22 03:44:42;;;;;;;22.27;13.47;;;;;;;;;;4417781;32;318524;-83
2023/01/22 03:47:11;;;;;;;19.93;11.97;;;;;;;;;;4417645;32;318482;-84
2023/01/22 03:49:37;;;;;;;19.97;12.97;;;;;;;;;;4403260;32;417353;-83
2023/01/22 03:52:04;;;;;;;22.47;14.33;;;;;;;;;;4417664;32;318306;-83
2023/01/22 03:54:31;;;;;;;18.97;12.10;;;;;;;;;;4407732;32;318314;-84
2023/01/22 03:56:58;;;;;;;22.03;13.33;;;;;;;;;;4416174;32;317599;-83
2023/01/22 03:59:24;;;;;;;22.17;14.40;;;;;;;;;;4406953;32;335465;-83
2023/01/22 04:01:52;;;;;;;21.57;14.70;;;;;;;;;;4417673;32;318604;-83
2023/01/22 04:04:21;;;;;;;28.77;17.07;;;;;;;;;;4386254;32;318564;-84
2023/01/22 04:06:48;;;;;;;41.30;21.93;;;;;;;;;;4416025;32;317847;-83
2023/01/22 04:09:14;;;;;;;36.10;22.43;;;;;;;;;;4404863;32;321735;-84
2023/01/22 04:11:41;;;;;;;56.87;28.33;;;;;;;;;;4417618;32;318599;-83
2023/01/22 04:14:08;;;;;;;35.80;21.07;;;;;;;;;;4417416;32;318485;-83
2023/01/22 04:16:35;;;;;;;32.17;20.53;;;;;;;;;;4406087;32;318342;-83
2023/01/22 04:19:02;;;;;;;27.00;19.13;;;;;;;;;;4417363;32;318685;-83
2023/01/22 04:21:30;;;;;;;32.60;17.67;;;;;;;;;;4406365;32;318561;-83
2023/01/22 04:23:57;;;;;;;25.47;16.63;;;;;;;;;;4417316;32;318654;-83
2023/01/22 04:26:24;;;;;;;25.93;15.77;;;;;;;;;;4397468;32;317821;-83
2023/01/22 04:28:51;;;;;;;25.53;15.27;;;;;;;;;;4416203;32;318749;-83
2023/01/22 04:31:18;;;;;;;29.47;17.07;;;;;;;;;;4406116;32;318179;-84
2023/01/22 04:33:44;;;;;;;27.33;17.73;;;;;;;;;;4415791;32;321664;-84
2023/01/22 04:36:11;;;;;;;27.57;16.13;;;;;;;;;;4417183;32;317746;-84
2023/01/22 04:38:39;;;;;;;24.93;16.70;;;;;;;;;;4406169;32;417086;-84
2023/01/22 04:41:06;;;;;;;51.83;27.10;;;;;;;;;;4420511;32;318172;-84
2023/01/22 04:43:33;;;;;;;48.93;27.70;;;;;;;;;;4410087;32;318466;-84
2023/01/22 04:46:00;;;;;;;43.97;24.07;;;;;;;;;;4419027;32;318020;-84
2023/01/22 04:48:26;;;;;;;46.90;29.33;;;;;;;;;;4408361;32;333656;-84
2023/01/22 04:50:53;;;;;;;36.87;24.47;;;;;;;;;;4420277;32;318429;-83
2023/01/22 04:53:20;;;;;;;30.43;18.30;;;;;;;;;;4409950;32;318592;-84
2023/01/22 04:55:48;;;;;;;32.87;18.90;;;;;;;;;;4418444;32;318509;-84
2023/01/22 04:58:15;;;;;;;30.47;19.53;;;;;;;;;;4408688;32;318518;-84
2023/01/22 05:00:42;;;;;;;52.20;31.37;;;;;;;;;;4418985;32;318420;-84
2023/01/22 05:03:10;;;;;;;44.47;29.73;;;;;;;;;;4419786;32;318386;-84
2023/01/22 05:05:39;;;;;;;39.27;24.50;;;;;;;;;;4406837;32;416050;-83
2023/01/22 05:08:06;;;;;;;42.77;25.20;;;;;;;;;;4419806;32;317612;-83
2023/01/22 05:10:33;;;;;;;43.70;22.90;;;;;;;;;;4410088;32;318430;-84
2023/01/22 05:13:04;;;;;;;42.70;22.17;;;;;;;;;;4418643;32;318878;-84
2023/01/22 05:15:31;;;;;;;40.40;22.43;;;;;;;;;;4410001;32;318513;-84
2023/01/22 05:17:58;;;;;;;43.20;26.00;;;;;;;;;;4419142;32;318391;-84
2023/01/22 05:20:25;;;;;;;42.77;26.07;;;;;;;;;;4408665;32;318239;-84
2023/01/22 05:22:52;;;;;;;34.57;24.53;;;;;;;;;;4418366;32;318186;-83
2023/01/22 05:25:19;;;;;;;45.43;23.20;;;;;;;;;;4408124;32;336418;-83
2023/01/22 05:27:45;;;;;;;41.57;25.53;;;;;;;;;;4419519;32;318478;-83
2023/01/22 05:30:14;;;;;;;40.00;23.80;;;;;;;;;;4409825;32;318351;-84
2023/01/22 05:32:41;;;;;;;39.37;25.17;;;;;;;;;;4419157;32;318023;-83
2023/01/22 05:35:08;;;;;;;38.13;25.87;;;;;;;;;;4418414;32;317509;-84
2023/01/22 05:37:35;;;;;;;42.53;26.13;;;;;;;;;;4409433;32;318478;-83
2023/01/22 05:40:04;;;;;;;47.53;25.50;;;;;;;;;;4418383;32;317614;-83
2023/01/22 05:42:33;;;;;;;34.60;24.83;;;;;;;;;;4409351;32;318470;-84
2023/01/22 05:45:00;;;;;;;43.53;27.03;;;;;;;;;;4418176;32;317643;-84
2023/01/22 05:47:28;;;;;;;41.10;27.20;;;;;;;;;;4408042;32;318714;-84
2023/01/22 05:49:55;;;;;;;41.83;25.57;;;;;;;;;;4419190;32;317525;-84
2023/01/22 05:52:22;;;;;;;48.03;27.30;;;;;;;;;;4407943;32;318361;-84
2023/01/22 05:54:49;;;;;;;68.27;37.90;;;;;;;;;;4416732;32;357701;-84
2023/01/22 05:57:15;;;;;;;56.23;35.83;;;;;;;;;;4409116;32;318268;-84
2023/01/22 05:59:42;;;;;;;69.70;40.67;;;;;;;;;;4419161;32;317870;-84
2023/01/22 06:02:09;;;;;;;63.73;39.93;;;;;;;;;;4418689;32;318430;-83
2023/01/22 06:04:37;;;;;;;104.83;57.03;;;;;;;;;;4407976;32;318572;-84
2023/01/22 06:07:04;;;;;;;99.13;58.60;;;;;;;;;;4417735;32;318777;-84
2023/01/22 06:09:31;;;;;;;104.17;58.27;;;;;;;;;;4407024;32;346686;-84
2023/01/22 06:11:57;;;;;;;91.53;52.03;;;;;;;;;;4418901;32;319329;-83
2023/01/22 06:14:24;;;;;;;105.27;58.07;;;;;;;;;;4408957;32;318206;-84
2023/01/22 06:16:51;;;;;;;102.03;55.90;;;;;;;;;;4418229;32;319455;-84
2023/01/22 06:19:18;;;;;;;136.70;58.90;;;;;;;;;;4407541;32;318786;-84
2023/01/22 06:21:46;;;;;;;125.47;59.97;;;;;;;;;;4418722;32;318576;-84
2023/01/22 06:24:13;;;;;;;98.93;53.20;;;;;;;;;;4405584;32;332265;-85
2023/01/22 06:26:39;;;;;;;121.47;54.43;;;;;;;;;;4418657;32;318385;-84
2023/01/22 06:29:06;;;;;;;111.27;54.07;;;;;;;;;;4418571;32;319390;-84
2023/01/22 06:31:33;;;;;;;160.30;73.60;;;;;;;;;;4408457;32;319489;-84
2023/01/22 06:34:00;;;;;;;181.87;82.70;;;;;;;;;;4418413;32;319221;-83
2023/01/22 06:36:27;;;;;;;167.23;73.13;;;;;;;;;;4407372;32;319505;-84
2023/01/22 06:38:55;;;;;;;122.90;60.10;;;;;;;;;;4417272;32;318520;-83
2023/01/22 06:41:22;;;;;;;125.37;61.13;;;;;;;;;;4407693;32;318915;-84
2023/01/22 06:43:49;;;;;;;190.30;66.60;;;;;;;;;;4417181;32;318947;-84
2023/01/22 06:46:16;;;;;;;141.10;68.43;;;;;;;;;;4406458;32;379152;-84
2023/01/22 06:48:43;;;;;;;171.87;69.10;;;;;;;;;;4418312;32;318687;-84
2023/01/22 06:51:10;;;;;;;143.40;70.67;;;;;;;;;;4417239;32;319270;-83
2023/01/22 06:53:37;;;;;;;143.03;76.20;;;;;;;;;;4404105;32;419814;-83
2023/01/22 06:56:06;;;;;;;153.53;74.80;;;;;;;;;;4417903;32;319443;-83
2023/01/22 06:58:33;;;;;;;211.40;135.40;;;;;;;;;;4407031;32;349431;-83
2023/01/22 07:01:00;;;;;;;199.47;100.87;;;;;;;;;;4417702;32;319572;-84
2023/01/22 07:03:27;;;;;;;150.50;79.23;;;;;;;;;;4406784;32;320638;-84
2023/01/22 07:05:58;;;;;;;156.67;83.27;;;;;;;;;;4416937;32;318764;-84
2023/01/22 07:08:25;;;;;;;176.87;98.13;;;;;;;;;;4407894;32;318563;-84
2023/01/22 07:10:52;;;;;;;125.57;68.53;;;;;;;;;;4417884;32;318535;-83
2023/01/22 07:13:20;;;;;;;135.47;69.70;;;;;;;;;;4406459;32;318635;-84
2023/01/22 07:15:47;;;;;;;119.57;74.47;;;;;;;;;;4418078;32;318631;-84
2023/01/22 07:18:15;;;;;;;148.27;84.73;;;;;;;;;;4406548;32;318565;-84
2023/01/22 07:20:43;;;;;;;190.17;103.87;;;;;;;;;;4416738;32;318507;-84
2023/01/22 07:23:10;;;;;;;202.83;116.67;;;;;;;;;;4415604;32;344471;-83
2023/01/22 07:25:37;;;;;;;208.50;117.33;;;;;;;;;;4407781;32;319826;-84
2023/01/22 07:28:05;;;;;;;225.57;123.70;;;;;;;;;;4416215;32;319749;-83
2023/01/22 07:30:34;;;;;;;208.17;120.00;;;;;;;;;;4407875;32;320668;-84
2023/01/22 07:33:02;;;;;;;200.83;113.97;;;;;;;;;;4417520;32;321677;-83
2023/01/22 07:35:29;;;;;;;202.57;113.30;;;;;;;;;;4407524;32;319843;-84
2023/01/22 07:37:57;;;;;;;218.77;121.87;;;;;;;;;;4416378;32;319879;-84
2023/01/22 07:40:25;;;;;;;172.70;98.70;;;;;;;;;;4407843;32;320144;-84
2023/01/22 07:42:52;;;;;;;167.93;97.13;;;;;;;;;;4417491;32;318438;-84
2023/01/22 07:45:19;;;;;;;161.30;89.63;;;;;;;;;;4406485;32;318560;-84
2023/01/22 07:47:53;;;;;;;151.47;86.53;;;;;;;;;;4417440;32;319462;-83
2023/01/22 07:50:20;;;;;;;148.97;84.73;;;;;;;;;;4407638;32;319091;-83
2023/01/22 07:52:47;;;;;;;132.70;82.83;;;;;;;;;;4417341;32;318500;-84
2023/01/22 07:55:14;;;;;;;132.10;76.43;;;;;;;;;;4406878;32;319305;-84
2023/01/22 07:57:41;;;;;;;119.23;76.07;;;;;;;;;;4417455;32;319480;-84
2023/01/22 08:00:09;;;;;;;135.80;86.23;;;;;;;;;;4416335;32;319397;-84
2023/01/22 08:02:36;;;;;;;98.90;64.27;;;;;;;;;;4406262;32;319419;-84
2023/01/22 08:05:05;;;;;;;107.97;69.30;;;;;;;;;;4416432;32;317410;-84
2023/01/22 08:07:33;;;;;;;110.93;70.33;;;;;;;;;;4407256;32;318921;-84
2023/01/22 08:09:59;;;;;;;267.53;150.37;;;;;;;;;;4417547;32;319414;-84
2023/01/22 08:12:26;;;;;;;218.30;128.93;;;;;;;;;;4407790;32;320288;-84
2023/01/22 08:14:53;;;;;;;245.67;139.43;;;;;;;;;;4419375;32;320430;-84
2023/01/22 08:17:20;;;;;;;197.00;107.07;;;;;;;;;;4410215;32;319834;-84
2023/01/22 08:19:46;;;;;;;332.27;123.13;;;;;;;;;;4420397;32;320501;-84
2023/01/22 08:22:14;;;;;;;256.07;116.13;;;;;;;;;;4409105;32;320376;-84
2023/01/22 08:24:42;;;;;;;193.07;112.37;;;;;;;;;;4420130;32;319686;-84
2023/01/22 08:27:08;;;;;;;228.37;130.90;;;;;;;;;;4420202;32;320546;-84
2023/01/22 08:29:35;;;;;;;180.83;116.13;;;;;;;;;;4410169;32;320294;-84
2023/01/22 08:32:02;;;;;;;254.47;130.63;;;;;;;;;;4419206;32;320333;-84
2023/01/22 08:34:29;;;;;;;270.73;138.93;;;;;;;;;;4407890;32;349970;-84
2023/01/22 08:36:57;;;;;;;253.23;125.00;;;;;;;;;;4411697;32;319645;-84
2023/01/22 08:39:25;;;;;;;236.23;130.97;;;;;;;;;;4408532;32;320303;-84
2023/01/22 08:41:56;;;;;;;165.20;98.50;;;;;;;;;;4418806;32;319667;-85
2023/01/22 08:44:23;;;;;;;191.57;84.80;;;;;;;;;;4410407;32;318703;-85
2023/01/22 08:46:52;;;;;;;119.60;66.97;;;;;;;;;;4420026;32;319164;-84
2023/01/22 08:49:20;;;;;;;97.67;56.00;;;;;;;;;;4408762;32;319567;-84
2023/01/22 08:51:49;;;;;;;74.27;49.33;;;;;;;;;;4417694;32;317490;-84
2023/01/22 08:54:16;;;;;;;65.23;40.90;;;;;;;;;;4410023;32;318491;-84
2023/01/22 08:56:44;;;;;;;50.03;33.20;;;;;;;;;;4419819;32;317415;-84
2023/01/22 08:59:11;;;;;;;54.27;35.90;;;;;;;;;;4419931;32;317445;-84
2023/01/22 09:01:37;;;;;;;58.60;36.27;;;;;;;;;;4409932;32;318262;-84
2023/01/22 09:04:06;;;;;;;38.77;26.17;;;;;;;;;;4418376;32;317897;-84
2023/01/22 09:06:33;;;;;;;55.87;30.93;;;;;;;;;;4408259;32;317462;-83
2023/01/22 09:09:02;;;;;;;42.17;27.27;;;;;;;;;;4418539;32;317516;-84
2023/01/22 09:11:29;;;;;;;32.03;19.63;;;;;;;;;;4408493;32;318252;-84
2023/01/22 09:13:58;;;;;;;156.00;69.63;;;;;;;;;;4417975;32;333121;-84
2023/01/22 09:16:24;;;;;;;40.30;25.33;;;;;;;;;;4409606;32;319222;-84
2023/01/22 09:18:51;;;;;;;39.93;24.93;;;;;;;;;;4419205;32;317894;-84
2023/01/22 09:21:18;;;;;;;44.50;29.97;;;;;;;;;;4408489;32;317439;-84
2023/01/22 09:23:45;;;;;;;50.83;31.40;;;;;;;;;;4417596;32;317452;-84
2023/01/22 09:26:12;;;;;;;50.57;32.03;;;;;;;;;;4419557;32;318301;-85
2023/01/22 09:28:38;;;;;;;37.07;26.50;;;;;;;;;;4405782;32;417798;-85
2023/01/22 09:31:07;;;;;;;55.37;38.37;;;;;;;;;;4418430;32;318163;-84
2023/01/22 09:33:34;;;;;;;36.20;25.63;;;;;;;;;;4400600;32;318320;-86
2023/01/22 09:36:08;;;;;;;38.50;26.60;;;;;;;;;;4419461;32;317490;-85
2023/01/22 09:38:35;;;;;;;55.20;35.23;;;;;;;;;;4408284;32;317955;-85
2023/01/22 09:41:07;;;;;;;39.23;23.97;;;;;;;;;;4419375;32;318501;-85
2023/01/22 09:43:37;;;;;;;42.20;27.60;;;;;;;;;;4408019;32;318496;-83
2023/01/22 09:46:16;;;;;;;33.10;23.30;;;;;;;;;;4417231;32;344961;-85
2023/01/22 09:48:47;;;;;;;50.53;33.07;;;;;;;;;;4405136;32;419379;-84
2023/01/22 09:51:14;;;;;;;42.57;28.30;;;;;;;;;;4407000;32;318151;-84
2023/01/22 09:53:43;;;;;;;42.13;28.20;;;;;;;;;;4418029;32;317647;-83
2023/01/22 09:56:20;;;;;;;38.77;27.20;;;;;;;;;;4418950;32;318417;-84
2023/01/22 09:58:48;;;;;;;31.83;22.37;;;;;;;;;;4406130;32;417491;-84
2023/01/22 10:01:18;;;;;;;33.83;21.43;;;;;;;;;;4407584;32;317621;-84
2023/01/22 10:03:48;;;;;;;31.53;21.80;;;;;;;;;;4418954;32;317501;-86
2023/01/22 10:06:19;;;;;;;33.60;23.57;;;;;;;;;;4407633;32;318280;-85
2023/01/22 10:08:54;;;;;;;32.27;23.30;;;;;;;;;;4417561;32;318581;-84
2023/01/22 10:11:20;;;;;;;32.57;22.27;;;;;;;;;;4409078;32;318223;-84
2023/01/22 10:13:56;;;;;;;37.97;24.50;;;;;;;;;;4417629;32;317574;-85
2023/01/22 10:16:25;;;;;;;39.97;27.07;;;;;;;;;;4408765;32;318321;-84
2023/01/22 10:18:55;;;;;;;36.47;23.70;;;;;;;;;;4418681;32;318478;-84
2023/01/22 10:21:26;;;;;;;36.13;23.57;;;;;;;;;;4407569;32;318337;-84
2023/01/22 10:23:56;;;;;;;48.17;28.13;;;;;;;;;;4418506;32;319389;-83
2023/01/22 10:26:32;;;;;;;40.13;27.30;;;;;;;;;;4407514;32;319655;-84
2023/01/22 10:29:05;;;;;;;39.80;27.83;;;;;;;;;;4417346;32;317489;-84
2023/01/22 10:31:35;;;;;;;38.97;27.07;;;;;;;;;;4408500;32;319386;-84
2023/01/22 10:34:03;;;;;;;46.07;29.60;;;;;;;;;;4418511;32;318593;-84
2023/01/22 10:36:31;;;;;;;44.57;31.13;;;;;;;;;;4407772;32;318997;-85
2023/01/22 10:39:06;;;;;;;52.10;34.13;;;;;;;;;;4410470;32;319196;-85
2023/01/22 10:41:33;;;;;;;50.70;32.63;;;;;;;;;;4406514;32;329408;-84
2023/01/22 10:44:25;;;;;;;46.67;32.33;;;;;;;;;;4418623;32;318590;-85
2023/01/22 10:46:55;;;;;;;42.60;29.83;;;;;;;;;;4389630;32;419537;-84
2023/01/22 10:49:23;;;;;;;44.10;30.77;;;;;;;;;;4408454;32;319178;-84
2023/01/22 10:51:54;;;;;;;52.87;31.97;;;;;;;;;;4417146;32;319600;-86
2023/01/22 10:54:24;;;;;;;61.73;40.83;;;;;;;;;;4408203;32;318839;-85
2023/01/22 10:56:53;;;;;;;75.40;53.10;;;;;;;;;;4416826;32;318524;-85
2023/01/22 10:59:24;;;;;;;83.43;53.63;;;;;;;;;;4408539;32;319570;-85
2023/01/22 11:01:58;;;;;;;68.93;42.20;;;;;;;;;;4418611;32;318528;-85
2023/01/22 11:04:27;;;;;;;101.13;60.17;;;;;;;;;;4409324;32;319452;-85
2023/01/22 11:06:58;;;;;;;55.03;37.63;;;;;;;;;;4419145;32;320101;-84
2023/01/22 11:09:31;;;;;;;52.10;35.83;;;;;;;;;;4409180;32;318442;-84
2023/01/22 11:12:03;;;;;;;57.33;38.50;;;;;;;;;;4419181;32;318513;-84
2023/01/22 11:14:33;;;;;;;52.50;36.10;;;;;;;;;;4408294;32;318500;-84
2023/01/22 11:17:09;;;;;;;56.07;40.70;;;;;;;;;;4417357;32;318564;-84
2023/01/22 11:19:43;;;;;;;55.07;40.47;;;;;;;;;;4408371;32;319269;-84
2023/01/22 11:22:25;;;;;;;60.70;39.67;;;;;;;;;;4420089;32;319537;-86
2023/01/22 11:24:52;;;;;;;60.73;38.33;;;;;;;;;;4406161;32;419373;-85
2023/01/22 11:27:39;;;;;;;61.47;41.60;;;;;;;;;;4408487;32;318474;-84
2023/01/22 11:30:24;;;;;;;59.83;42.77;;;;;;;;;;4417537;32;338351;-84
2023/01/22 11:33:05;;;;;;;64.63;41.47;;;;;;;;;;4403883;32;419441;-84
2023/01/22 11:35:39;;;;;;;66.03;46.93;;;;;;;;;;4407977;32;319501;-84
2023/01/22 11:38:17;;;;;;;81.50;50.00;;;;;;;;;;4418248;32;319165;-84
2023/01/22 11:41:01;;;;;;;78.63;54.77;;;;;;;;;;4404135;32;419023;-84
2023/01/22 11:43:44;;;;;;;73.23;48.53;;;;;;;;;;4408082;32;318524;-84
2023/01/22 11:46:26;;;;;;;78.30;51.77;;;;;;;;;;4418073;32;318489;-85
2023/01/22 11:49:08;;;;;;;311.10;199.03;;;;;;;;;;4404341;32;419544;-84
2023/01/22 11:51:39;;;;;;;151.40;92.27;;;;;;;;;;4407802;32;320847;-84
2023/01/22 11:54:18;;;;;;;116.77;76.90;;;;;;;;;;4418050;32;319759;-84
2023/01/22 11:57:04;;;;;;;120.07;93.67;;;;;;;;;;4405062;32;405035;-84
2023/01/22 12:00:03;;;;;;;98.10;67.47;;;;;;;;;;4407770;32;320361;-85
2023/01/22 12:02:46;;;;;;;92.30;62.53;;;;;;;;;;4406313;32;355740;-85
2023/01/22 12:05:28;;;;;;;92.30;63.77;;;;;;;;;;4407882;32;319365;-85
2023/01/22 12:08:17;;;;;;;93.97;63.23;;;;;;;;;;4417678;32;318705;-84
2023/01/22 12:11:07;;;;;;;90.93;59.07;;;;;;;;;;4403864;32;419435;-84
2023/01/22 12:13:46;;;;;;;84.33;56.73;;;;;;;;;;4406383;32;319368;-83
2023/01/22 12:16:21;;;;;;;99.80;63.70;;;;;;;;;;4406584;32;318525;-84
2023/01/22 12:19:24;;;;;;;82.57;54.00;;;;;;;;;;4416198;32;319291;-84
2023/01/22 12:21:59;;;;;;;97.87;61.87;;;;;;;;;;4404926;32;419986;-84
2023/01/22 12:24:33;;;;;;;81.53;53.30;;;;;;;;;;4406495;32;318388;-84
2023/01/22 12:27:05;;;;;;;74.17;51.43;;;;;;;;;;4417727;32;318412;-85
2023/01/22 12:29:38;;;;;;;73.90;50.92;;;;;;;;;;4407390;32;342844;-84
2023/01/22 12:32:09;;;;;;;76.20;50.90;;;;;;;;;;4416305;32;318580;-84
2023/01/22 12:34:42;;;;;;;68.33;43.60;;;;;;;;;;4406429;32;320903;-85
2023/01/22 12:37:15;;;;;;;64.53;45.23;;;;;;;;;;4417031;32;319145;-84
2023/01/22 12:39:51;;;;;;;69.20;41.03;;;;;;;;;;4397745;32;418215;-84
2023/01/22 12:42:27;;;;;;;61.83;42.60;;;;;;;;;;4406680;32;318408;-84
2023/01/22 12:45:05;;;;;;;64.77;41.63;;;;;;;;;;4418708;32;318582;-84
2023/01/22 12:47:42;;;;;;;67.97;43.17;;;;;;;;;;4407542;32;318473;-85
2023/01/22 12:50:17;;;;;;;63.93;42.87;;;;;;;;;;4417003;32;319483;-84
2023/01/22 12:52:46;;;;;;;60.43;37.77;;;;;;;;;;4403630;32;419366;-84
2023/01/22 12:55:29;;;;;;;57.80;37.13;;;;;;;;;;4405784;32;318441;-85
2023/01/22 12:57:57;;;;;;;57.13;37.17;;;;;;;;;;4416407;32;325289;-83
2023/01/22 13:00:32;;;;;;;53.83;37.87;;;;;;;;;;4410066;32;318671;-84
2023/01/22 13:03:03;;;;;;;60.47;40.33;;;;;;;;;;4419207;32;318707;-84
2023/01/22 13:05:43;;;;;;;70.03;43.43;;;;;;;;;;4409319;32;319704;-84
2023/01/22 13:08:33;;;;;;;143.10;60.93;;;;;;;;;;4420183;32;318955;-83
2023/01/22 13:11:02;;;;;;;96.67;54.60;;;;;;;;;;4413858;32;418854;-82
2023/01/22 13:13:32;;;;;;;118.07;49.90;;;;;;;;;;4411294;32;318575;-84
2023/01/22 13:16:02;;;;;;;89.40;47.93;;;;;;;;;;4420036;32;320567;-84
2023/01/22 13:18:31;;;;;;;162.93;60.13;;;;;;;;;;4414740;32;318646;-84
2023/01/22 13:21:02;;;;;;;66.23;38.00;;;;;;;;;;4423794;32;319869;-84
2023/01/22 13:23:32;;;;;;;63.33;37.87;;;;;;;;;;4415413;32;319482;-83
2023/01/22 13:26:01;;;;;;;59.53;37.87;;;;;;;;;;4420990;32;318498;-83
2023/01/22 13:28:29;;;;;;;77.93;52.97;;;;;;;;;;4408414;32;319425;-84
2023/01/22 13:30:57;;;;;;;90.97;58.97;;;;;;;;;;4418774;32;319366;-84
2023/01/22 13:33:27;;;;;;;99.90;62.50;;;;;;;;;;4410265;32;319488;-84
2023/01/22 13:35:54;;;;;;;112.17;66.73;;;;;;;;;;4420122;32;319378;-83
2023/01/22 13:38:25;;;;;;;107.57;62.43;;;;;;;;;;4409080;32;320118;-84
2023/01/22 13:40:58;;;;;;;94.13;61.60;;;;;;;;;;4419139;32;320217;-84
2023/01/22 13:43:26;;;;;;;87.73;58.83;;;;;;;;;;4406496;32;345157;-84
2023/01/22 13:45:55;;;;;;;96.63;60.27;;;;;;;;;;4418353;32;318808;-84
2023/01/22 13:48:24;;;;;;;106.10;68.83;;;;;;;;;;4408044;32;319426;-84
2023/01/22 13:50:55;;;;;;;113.80;67.00;;;;;;;;;;4418074;32;319497;-84
2023/01/22 13:53:26;;;;;;;99.83;63.53;;;;;;;;;;4409103;32;319763;-84
2023/01/22 13:55:53;;;;;;;120.07;67.73;;;;;;;;;;4417577;32;319398;-84
2023/01/22 13:58:31;;;;;;;107.53;67.10;;;;;;;;;;4408838;32;320428;-84
2023/01/22 14:00:58;;;;;;;109.03;66.50;;;;;;;;;;4419282;32;319609;-84
2023/01/22 14:03:28;;;;;;;107.13;67.90;;;;;;;;;;4408770;32;319984;-84
2023/01/22 14:06:03;;;;;;;131.43;80.77;;;;;;;;;;4419201;32;319712;-83
2023/01/22 14:08:30;;;;;;;124.80;74.93;;;;;;;;;;4408808;32;319666;-84
2023/01/22 14:10:58;;;;;;;150.17;81.73;;;;;;;;;;4418815;32;320322;-83
2023/01/22 14:13:25;;;;;;;122.53;78.77;;;;;;;;;;4408609;32;320621;-83
2023/01/22 14:16:00;;;;;;;116.37;80.40;;;;;;;;;;4418740;32;320485;-84
2023/01/22 14:18:28;;;;;;;138.73;85.53;;;;;;;;;;4408466;32;320056;-84
2023/01/22 14:20:55;;;;;;;144.50;90.13;;;;;;;;;;4418987;32;320302;-84
2023/01/22 14:23:22;;;;;;;175.10;107.40;;;;;;;;;;4408531;32;320540;-84